sensor_id;sensor_type;location;lat;lon;timestamp;temperature;humidity
42135;DHT22;28312;43.460;11.810;2024-02-14T00:01:32;2.20;90.40
42135;DHT22;28312;43.460;11.810;2024-02-14T00:05:37;2.10;90.50
42135;DHT22;28312;43.460;11.810;2024-02-14T00:09:40;2.20;90.70
42135;DHT22;28312;43.460;11.810;2024-02-14T00:13:44;2.10;90.50
42135;DHT22;28312;43.460;11.810;2024-02-14T00:17:48;2.00;90.50
42135;DHT22;28312;43.460;11.810;2024-02-14T00:21:51;2.00;90.50
42135;DHT22;28312;43.460;11.810;2024-02-14T00:25:55;1.90;90.40
42135;DHT22;28312;43.460;11.810;2024-02-14T00:29:58;1.90;90.80
42135;DHT22;28312;43.460;11.810;2024-02-14T00:34:07;1.90;90.80
42135;DHT22;28312;43.460;11.810;2024-02-14T00:38:11;1.90;90.70
42135;DHT22;28312;43.460;11.810;2024-02-14T00:42:15;1.80;90.50
42135;DHT22;28312;43.460;11.810;2024-02-14T00:46:18;1.70;90.60
42135;DHT22;28312;43.460;11.810;2024-02-14T00:50:22;1.70;90.70
42135;DHT22;28312;43.460;11.810;2024-02-14T00:54:25;1.70;90.60
42135;DHT22;28312;43.460;11.810;2024-02-14T00:58:29;1.70;90.70
42135;DHT22;28312;43.460;11.810;2024-02-14T01:02:33;1.70;90.80
42135;DHT22;28312;43.460;11.810;2024-02-14T01:06:37;1.70;90.70
42135;DHT22;28312;43.460;11.810;2024-02-14T01:10:40;1.70;90.80
42135;DHT22;28312;43.460;11.810;2024-02-14T01:14:45;1.70;90.80
42135;DHT22;28312;43.460;11.810;2024-02-14T01:18:49;1.70;90.80
42135;DHT22;28312;43.460;11.810;2024-02-14T01:22:53;1.60;90.80
42135;DHT22;28312;43.460;11.810;2024-02-14T01:27:00;1.60;90.80
42135;DHT22;28312;43.460;11.810;2024-02-14T01:31:04;1.60;90.80
42135;DHT22;28312;43.460;11.810;2024-02-14T01:35:07;1.60;90.80
42135;DHT22;28312;43.460;11.810;2024-02-14T01:39:12;1.50;90.70
42135;DHT22;28312;43.460;11.810;2024-02-14T01:43:16;1.50;90.70
42135;DHT22;28312;43.460;11.810;2024-02-14T01:47:20;1.40;90.70
42135;DHT22;28312;43.460;11.810;2024-02-14T01:51:24;1.40;90.60
42135;DHT22;28312;43.460;11.810;2024-02-14T01:55:29;1.30;90.40
42135;DHT22;28312;43.460;11.810;2024-02-14T01:59:33;1.20;90.30
42135;DHT22;28312;43.460;11.810;2024-02-14T02:03:40;1.20;90.50
42135;DHT22;28312;43.460;11.810;2024-02-14T02:07:44;1.20;90.80
42135;DHT22;28312;43.460;11.810;2024-02-14T02:11:51;1.30;90.90
42135;DHT22;28312;43.460;11.810;2024-02-14T02:16:16;1.30;91.10
42135;DHT22;28312;43.460;11.810;2024-02-14T02:20:42;1.30;91.10
42135;DHT22;28312;43.460;11.810;2024-02-14T02:24:48;1.30;91.10
42135;DHT22;28312;43.460;11.810;2024-02-14T02:28:54;1.30;91.00
42135;DHT22;28312;43.460;11.810;2024-02-14T02:32:57;1.30;90.80
42135;DHT22;28312;43.460;11.810;2024-02-14T02:37:02;1.30;90.80
42135;DHT22;28312;43.460;11.810;2024-02-14T02:41:24;1.30;90.80
42135;DHT22;28312;43.460;11.810;2024-02-14T02:45:46;1.20;90.60
42135;DHT22;28312;43.460;11.810;2024-02-14T02:50:10;1.20;90.60
42135;DHT22;28312;43.460;11.810;2024-02-14T02:54:33;1.10;90.60
42135;DHT22;28312;43.460;11.810;2024-02-14T02:58:57;1.00;90.60
42135;DHT22;28312;43.460;11.810;2024-02-14T03:03:01;1.00;90.70
42135;DHT22;28312;43.460;11.810;2024-02-14T03:07:23;1.00;90.70
42135;DHT22;28312;43.460;11.810;2024-02-14T03:11:47;1.00;90.70
42135;DHT22;28312;43.460;11.810;2024-02-14T03:16:11;1.00;90.80
42135;DHT22;28312;43.460;11.810;2024-02-14T03:20:14;1.00;90.90
42135;DHT22;28312;43.460;11.810;2024-02-14T03:24:20;1.00;90.90
42135;DHT22;28312;43.460;11.810;2024-02-14T03:28:24;1.00;90.90
42135;DHT22;28312;43.460;11.810;2024-02-14T03:32:28;0.90;90.70
42135;DHT22;28312;43.460;11.810;2024-02-14T03:36:32;0.90;90.80
42135;DHT22;28312;43.460;11.810;2024-02-14T03:40:36;0.90;90.70
42135;DHT22;28312;43.460;11.810;2024-02-14T03:44:41;0.80;90.50
42135;DHT22;28312;43.460;11.810;2024-02-14T03:48:46;0.80;90.70
42135;DHT22;28312;43.460;11.810;2024-02-14T03:52:54;0.80;90.90
42135;DHT22;28312;43.460;11.810;2024-02-14T03:56:58;0.70;90.70
42135;DHT22;28312;43.460;11.810;2024-02-14T04:01:02;0.70;90.80
42135;DHT22;28312;43.460;11.810;2024-02-14T04:05:05;0.70;91.00
42135;DHT22;28312;43.460;11.810;2024-02-14T04:09:10;0.80;91.00
42135;DHT22;28312;43.460;11.810;2024-02-14T04:13:15;0.70;90.90
42135;DHT22;28312;43.460;11.810;2024-02-14T04:17:18;0.70;91.00
42135;DHT22;28312;43.460;11.810;2024-02-14T04:21:22;0.70;91.00
42135;DHT22;28312;43.460;11.810;2024-02-14T04:25:25;0.70;90.80
42135;DHT22;28312;43.460;11.810;2024-02-14T04:29:29;0.60;90.80
42135;DHT22;28312;43.460;11.810;2024-02-14T04:33:37;0.60;90.60
42135;DHT22;28312;43.460;11.810;2024-02-14T04:37:40;0.60;90.70
42135;DHT22;28312;43.460;11.810;2024-02-14T04:41:47;0.60;90.70
42135;DHT22;28312;43.460;11.810;2024-02-14T04:46:03;0.60;90.80
42135;DHT22;28312;43.460;11.810;2024-02-14T04:50:11;0.60;90.80
42135;DHT22;28312;43.460;11.810;2024-02-14T04:54:14;0.50;90.70
42135;DHT22;28312;43.460;11.810;2024-02-14T04:58:20;0.50;90.80
42135;DHT22;28312;43.460;11.810;2024-02-14T05:02:23;0.50;90.80
42135;DHT22;28312;43.460;11.810;2024-02-14T05:06:27;0.50;90.90
42135;DHT22;28312;43.460;11.810;2024-02-14T05:10:31;0.40;90.80
42135;DHT22;28312;43.460;11.810;2024-02-14T05:14:38;0.40;90.80
42135;DHT22;28312;43.460;11.810;2024-02-14T05:18:41;0.50;90.90
42135;DHT22;28312;43.460;11.810;2024-02-14T05:22:45;0.40;90.90
42135;DHT22;28312;43.460;11.810;2024-02-14T05:26:49;0.50;90.80
42135;DHT22;28312;43.460;11.810;2024-02-14T05:30:56;0.40;90.80
42135;DHT22;28312;43.460;11.810;2024-02-14T05:35:06;0.40;90.70
42135;DHT22;28312;43.460;11.810;2024-02-14T05:39:11;0.40;90.80
42135;DHT22;28312;43.460;11.810;2024-02-14T05:43:15;0.30;90.70
42135;DHT22;28312;43.460;11.810;2024-02-14T05:47:21;0.30;90.60
42135;DHT22;28312;43.460;11.810;2024-02-14T05:51:25;0.30;90.60
42135;DHT22;28312;43.460;11.810;2024-02-14T05:55:29;0.30;90.60
42135;DHT22;28312;43.460;11.810;2024-02-14T05:59:33;0.20;90.50
42135;DHT22;28312;43.460;11.810;2024-02-14T06:03:38;0.20;90.50
42135;DHT22;28312;43.460;11.810;2024-02-14T06:07:44;0.10;90.70
42135;DHT22;28312;43.460;11.810;2024-02-14T06:11:48;0.30;90.90
42135;DHT22;28312;43.460;11.810;2024-02-14T06:15:51;0.30;90.90
42135;DHT22;28312;43.460;11.810;2024-02-14T06:19:55;0.20;90.90
42135;DHT22;28312;43.460;11.810;2024-02-14T06:24:01;0.30;90.80
42135;DHT22;28312;43.460;11.810;2024-02-14T06:28:07;0.20;90.70
42135;DHT22;28312;43.460;11.810;2024-02-14T06:32:13;0.20;90.90
42135;DHT22;28312;43.460;11.810;2024-02-14T06:36:18;0.20;90.90
42135;DHT22;28312;43.460;11.810;2024-02-14T06:40:22;0.20;91.00
42135;DHT22;28312;43.460;11.810;2024-02-14T06:44:25;0.30;91.00
42135;DHT22;28312;43.460;11.810;2024-02-14T06:48:29;0.30;91.10
42135;DHT22;28312;43.460;11.810;2024-02-14T06:52:33;0.40;91.20
42135;DHT22;28312;43.460;11.810;2024-02-14T06:56:37;0.50;91.40
42135;DHT22;28312;43.460;11.810;2024-02-14T07:00:41;0.70;92.10
42135;DHT22;28312;43.460;11.810;2024-02-14T07:04:44;1.20;94.00
42135;DHT22;28312;43.460;11.810;2024-02-14T07:08:48;2.00;95.40
42135;DHT22;28312;43.460;11.810;2024-02-14T07:12:52;3.10;96.10
42135;DHT22;28312;43.460;11.810;2024-02-14T07:16:55;4.10;96.50
42135;DHT22;28312;43.460;11.810;2024-02-14T07:20:59;4.90;96.70
42135;DHT22;28312;43.460;11.810;2024-02-14T07:25:02;5.70;96.90
42135;DHT22;28312;43.460;11.810;2024-02-14T07:29:08;6.60;97.00
42135;DHT22;28312;43.460;11.810;2024-02-14T07:33:12;7.60;97.10
42135;DHT22;28312;43.460;11.810;2024-02-14T07:37:16;8.60;97.20
42135;DHT22;28312;43.460;11.810;2024-02-14T07:41:23;9.70;97.30
42135;DHT22;28312;43.460;11.810;2024-02-14T07:45:29;10.50;97.40
42135;DHT22;28312;43.460;11.810;2024-02-14T07:49:33;11.30;97.40
42135;DHT22;28312;43.460;11.810;2024-02-14T09:11:07;19.90;82.50
42135;DHT22;28312;43.460;11.810;2024-02-14T09:15:11;20.40;82.00
42135;DHT22;28312;43.460;11.810;2024-02-14T09:19:15;21.00;82.30
42135;DHT22;28312;43.460;11.810;2024-02-14T09:23:20;21.40;80.30
42135;DHT22;28312;43.460;11.810;2024-02-14T09:27:25;21.60;80.20
42135;DHT22;28312;43.460;11.810;2024-02-14T09:31:29;21.80;80.00
42135;DHT22;28312;43.460;11.810;2024-02-14T09:35:32;22.00;79.20
42135;DHT22;28312;43.460;11.810;2024-02-14T09:39:36;22.20;78.10
42135;DHT22;28312;43.460;11.810;2024-02-14T09:43:46;22.20;79.20
42135;DHT22;28312;43.460;11.810;2024-02-14T09:47:49;22.40;77.90
42135;DHT22;28312;43.460;11.810;2024-02-14T09:51:55;22.50;78.80
42135;DHT22;28312;43.460;11.810;2024-02-14T09:56:00;22.60;79.00
42135;DHT22;28312;43.460;11.810;2024-02-14T10:00:05;22.80;79.20
42135;DHT22;28312;43.460;11.810;2024-02-14T10:04:10;23.10;79.10
42135;DHT22;28312;43.460;11.810;2024-02-14T10:08:14;23.40;79.30
42135;DHT22;28312;43.460;11.810;2024-02-14T10:12:18;23.70;79.70
42135;DHT22;28312;43.460;11.810;2024-02-14T10:16:22;24.10;79.00
42135;DHT22;28312;43.460;11.810;2024-02-14T10:20:27;24.30;78.60
42135;DHT22;28312;43.460;11.810;2024-02-14T10:24:33;24.20;77.30
42135;DHT22;28312;43.460;11.810;2024-02-14T10:28:37;24.00;78.00
42135;DHT22;28312;43.460;11.810;2024-02-14T10:32:46;24.10;78.30
42135;DHT22;28312;43.460;11.810;2024-02-14T10:36:53;24.50;78.40
42135;DHT22;28312;43.460;11.810;2024-02-14T10:41:00;24.80;80.50
42135;DHT22;28312;43.460;11.810;2024-02-14T10:45:05;25.00;79.00
42135;DHT22;28312;43.460;11.810;2024-02-14T10:49:22;25.10;77.50
42135;DHT22;28312;43.460;11.810;2024-02-14T10:53:29;25.10;78.00
42135;DHT22;28312;43.460;11.810;2024-02-14T10:57:35;25.20;78.60
42135;DHT22;28312;43.460;11.810;2024-02-14T11:01:39;25.10;76.50
42135;DHT22;28312;43.460;11.810;2024-02-14T11:05:47;24.60;75.80
42135;DHT22;28312;43.460;11.810;2024-02-14T11:10:05;24.20;78.50
42135;DHT22;28312;43.460;11.810;2024-02-14T11:14:08;24.60;81.30
42135;DHT22;28312;43.460;11.810;2024-02-14T11:18:12;25.00;80.40
42135;DHT22;28312;43.460;11.810;2024-02-14T11:22:20;25.20;80.50
42135;DHT22;28312;43.460;11.810;2024-02-14T11:26:25;25.40;78.60
42135;DHT22;28312;43.460;11.810;2024-02-14T11:30:30;25.40;78.20
42135;DHT22;28312;43.460;11.810;2024-02-14T11:34:34;25.30;79.30
42135;DHT22;28312;43.460;11.810;2024-02-14T11:38:41;25.40;78.00
42135;DHT22;28312;43.460;11.810;2024-02-14T11:42:45;25.20;79.80
42135;DHT22;28312;43.460;11.810;2024-02-14T11:46:51;25.60;81.40
42135;DHT22;28312;43.460;11.810;2024-02-14T11:50:55;25.60;78.40
42135;DHT22;28312;43.460;11.810;2024-02-14T11:54:59;25.60;79.30
42135;DHT22;28312;43.460;11.810;2024-02-14T11:59:04;25.50;78.30
42135;DHT22;28312;43.460;11.810;2024-02-14T12:03:18;25.40;80.60
42135;DHT22;28312;43.460;11.810;2024-02-14T12:07:23;25.50;80.90
42135;DHT22;28312;43.460;11.810;2024-02-14T12:11:27;25.20;81.80
42135;DHT22;28312;43.460;11.810;2024-02-14T12:15:40;25.10;83.10
42135;DHT22;28312;43.460;11.810;2024-02-14T12:19:44;25.10;82.70
42135;DHT22;28312;43.460;11.810;2024-02-14T12:23:48;25.10;82.00
42135;DHT22;28312;43.460;11.810;2024-02-14T12:27:56;24.70;82.20
42135;DHT22;28312;43.460;11.810;2024-02-14T12:32:07;24.70;82.50
42135;DHT22;28312;43.460;11.810;2024-02-14T12:36:11;24.60;81.30
42135;DHT22;28312;43.460;11.810;2024-02-14T12:40:15;24.60;81.30
42135;DHT22;28312;43.460;11.810;2024-02-14T12:44:19;24.80;83.00
42135;DHT22;28312;43.460;11.810;2024-02-14T12:48:27;24.90;84.20
42135;DHT22;28312;43.460;11.810;2024-02-14T12:52:32;25.20;83.50
42135;DHT22;28312;43.460;11.810;2024-02-14T12:56:41;25.30;82.30
42135;DHT22;28312;43.460;11.810;2024-02-14T13:00:47;25.40;82.90
42135;DHT22;28312;43.460;11.810;2024-02-14T13:04:51;25.30;81.00
42135;DHT22;28312;43.460;11.810;2024-02-14T13:08:56;25.20;81.30
42135;DHT22;28312;43.460;11.810;2024-02-14T13:12:59;25.30;81.50
42135;DHT22;28312;43.460;11.810;2024-02-14T13:17:03;25.10;81.00
42135;DHT22;28312;43.460;11.810;2024-02-14T13:21:09;25.00;82.00
42135;DHT22;28312;43.460;11.810;2024-02-14T13:25:13;25.00;82.50
42135;DHT22;28312;43.460;11.810;2024-02-14T13:29:20;24.70;81.10
42135;DHT22;28312;43.460;11.810;2024-02-14T13:33:23;24.40;81.90
42135;DHT22;28312;43.460;11.810;2024-02-14T13:37:27;24.20;82.40
42135;DHT22;28312;43.460;11.810;2024-02-14T13:41:31;24.30;82.80
42135;DHT22;28312;43.460;11.810;2024-02-14T13:45:43;24.40;82.20
42135;DHT22;28312;43.460;11.810;2024-02-14T13:49:47;24.30;81.80
42135;DHT22;28312;43.460;11.810;2024-02-14T13:53:51;24.10;81.20
42135;DHT22;28312;43.460;11.810;2024-02-14T13:57:54;23.90;81.40
42135;DHT22;28312;43.460;11.810;2024-02-14T14:01:58;23.70;81.90
42135;DHT22;28312;43.460;11.810;2024-02-14T14:06:03;23.80;82.70
42135;DHT22;28312;43.460;11.810;2024-02-14T14:10:09;24.10;83.30
42135;DHT22;28312;43.460;11.810;2024-02-14T14:14:12;24.40;81.50
42135;DHT22;28312;43.460;11.810;2024-02-14T14:18:21;24.50;81.80
42135;DHT22;28312;43.460;11.810;2024-02-14T14:22:27;24.60;82.00
42135;DHT22;28312;43.460;11.810;2024-02-14T14:26:32;24.60;80.90
42135;DHT22;28312;43.460;11.810;2024-02-14T14:30:36;24.50;81.10
42135;DHT22;28312;43.460;11.810;2024-02-14T14:34:39;24.60;81.20
42135;DHT22;28312;43.460;11.810;2024-02-14T14:38:43;24.70;81.10
42135;DHT22;28312;43.460;11.810;2024-02-14T14:42:47;24.80;80.30
42135;DHT22;28312;43.460;11.810;2024-02-14T14:46:51;24.60;79.70
42135;DHT22;28312;43.460;11.810;2024-02-14T14:50:54;24.10;79.20
42135;DHT22;28312;43.460;11.810;2024-02-14T14:54:59;23.70;79.20
42135;DHT22;28312;43.460;11.810;2024-02-14T14:59:03;23.30;81.00
42135;DHT22;28312;43.460;11.810;2024-02-14T15:03:07;23.20;81.20
42135;DHT22;28312;43.460;11.810;2024-02-14T15:07:11;23.20;82.00
42135;DHT22;28312;43.460;11.810;2024-02-14T15:11:15;23.20;81.50
42135;DHT22;28312;43.460;11.810;2024-02-14T15:15:20;23.10;81.60
42135;DHT22;28312;43.460;11.810;2024-02-14T15:19:24;23.10;81.40
42135;DHT22;28312;43.460;11.810;2024-02-14T15:23:28;22.90;81.50
42135;DHT22;28312;43.460;11.810;2024-02-14T15:27:31;22.70;81.00
42135;DHT22;28312;43.460;11.810;2024-02-14T15:31:35;22.40;80.70
42135;DHT22;28312;43.460;11.810;2024-02-14T15:35:58;22.00;80.60
42135;DHT22;28312;43.460;11.810;2024-02-14T15:40:05;21.70;82.50
42135;DHT22;28312;43.460;11.810;2024-02-14T15:44:09;21.60;82.00
42135;DHT22;28312;43.460;11.810;2024-02-14T15:48:12;21.30;82.20
42135;DHT22;28312;43.460;11.810;2024-02-14T15:52:16;21.10;82.20
42135;DHT22;28312;43.460;11.810;2024-02-14T15:56:21;20.90;82.90
42135;DHT22;28312;43.460;11.810;2024-02-14T16:00:26;20.70;82.90
42135;DHT22;28312;43.460;11.810;2024-02-14T16:04:41;20.60;82.40
42135;DHT22;28312;43.460;11.810;2024-02-14T16:08:45;20.20;82.90
42135;DHT22;28312;43.460;11.810;2024-02-14T16:12:48;20.00;82.90
42135;DHT22;28312;43.460;11.810;2024-02-14T16:16:52;19.50;82.50
42135;DHT22;28312;43.460;11.810;2024-02-14T16:20:55;19.00;82.40
42135;DHT22;28312;43.460;11.810;2024-02-14T16:25:00;18.40;82.00
42135;DHT22;28312;43.460;11.810;2024-02-14T16:29:03;17.90;82.00
42135;DHT22;28312;43.460;11.810;2024-02-14T16:33:07;17.40;81.50
42135;DHT22;28312;43.460;11.810;2024-02-14T16:37:11;16.80;81.50
42135;DHT22;28312;43.460;11.810;2024-02-14T16:41:20;16.40;81.70
42135;DHT22;28312;43.460;11.810;2024-02-14T16:45:26;15.90;82.00
42135;DHT22;28312;43.460;11.810;2024-02-14T16:49:30;15.40;82.90
42135;DHT22;28312;43.460;11.810;2024-02-14T16:53:33;15.10;83.10
42135;DHT22;28312;43.460;11.810;2024-02-14T16:57:37;14.70;83.70
42135;DHT22;28312;43.460;11.810;2024-02-14T17:01:40;14.40;84.70
42135;DHT22;28312;43.460;11.810;2024-02-14T17:05:47;14.10;85.80
42135;DHT22;28312;43.460;11.810;2024-02-14T17:09:50;13.80;86.00
42135;DHT22;28312;43.460;11.810;2024-02-14T17:13:54;13.70;87.00
42135;DHT22;28312;43.460;11.810;2024-02-14T17:17:58;13.60;87.00
42135;DHT22;28312;43.460;11.810;2024-02-14T17:22:01;13.40;87.40
42135;DHT22;28312;43.460;11.810;2024-02-14T17:26:19;13.20;87.80
42135;DHT22;28312;43.460;11.810;2024-02-14T17:30:24;13.20;88.00
42135;DHT22;28312;43.460;11.810;2024-02-14T17:34:29;13.00;88.30
42135;DHT22;28312;43.460;11.810;2024-02-14T17:38:36;12.80;87.80
42135;DHT22;28312;43.460;11.810;2024-02-14T17:42:40;12.60;88.00
42135;DHT22;28312;43.460;11.810;2024-02-14T17:46:44;12.50;87.90
42135;DHT22;28312;43.460;11.810;2024-02-14T17:50:47;12.30;87.50
42135;DHT22;28312;43.460;11.810;2024-02-14T17:54:52;12.10;88.00
42135;DHT22;28312;43.460;11.810;2024-02-14T17:58:57;12.00;88.80
42135;DHT22;28312;43.460;11.810;2024-02-14T18:03:01;12.10;89.60
42135;DHT22;28312;43.460;11.810;2024-02-14T18:07:08;12.10;90.00
42135;DHT22;28312;43.460;11.810;2024-02-14T18:11:11;12.20;90.30
42135;DHT22;28312;43.460;11.810;2024-02-14T18:15:16;12.20;90.30
42135;DHT22;28312;43.460;11.810;2024-02-14T18:19:21;12.20;90.10
42135;DHT22;28312;43.460;11.810;2024-02-14T18:23:24;12.20;90.30
42135;DHT22;28312;43.460;11.810;2024-02-14T18:27:30;12.20;89.60
42135;DHT22;28312;43.460;11.810;2024-02-14T18:31:33;11.90;89.30
42135;DHT22;28312;43.460;11.810;2024-02-14T18:35:40;11.80;89.40
42135;DHT22;28312;43.460;11.810;2024-02-14T18:39:43;11.70;89.20
42135;DHT22;28312;43.460;11.810;2024-02-14T18:43:47;11.60;89.20
42135;DHT22;28312;43.460;11.810;2024-02-14T18:47:50;11.50;88.30
42135;DHT22;28312;43.460;11.810;2024-02-14T18:51:54;11.30;87.70
42135;DHT22;28312;43.460;11.810;2024-02-14T18:55:58;11.00;87.00
42135;DHT22;28312;43.460;11.810;2024-02-14T19:00:01;10.70;86.80
42135;DHT22;28312;43.460;11.810;2024-02-14T19:04:08;10.40;87.80
42135;DHT22;28312;43.460;11.810;2024-02-14T19:08:12;10.30;88.90
42135;DHT22;28312;43.460;11.810;2024-02-14T19:12:15;10.30;89.60
42135;DHT22;28312;43.460;11.810;2024-02-14T19:16:19;10.40;90.40
42135;DHT22;28312;43.460;11.810;2024-02-14T19:20:31;10.70;90.60
42135;DHT22;28312;43.460;11.810;2024-02-14T19:24:37;10.70;91.00
42135;DHT22;28312;43.460;11.810;2024-02-14T19:28:41;10.90;91.00
42135;DHT22;28312;43.460;11.810;2024-02-14T19:32:44;10.90;90.80
42135;DHT22;28312;43.460;11.810;2024-02-14T19:36:49;10.80;89.60
42135;DHT22;28312;43.460;11.810;2024-02-14T19:40:53;10.50;88.30
42135;DHT22;28312;43.460;11.810;2024-02-14T19:44:57;10.20;87.50
42135;DHT22;28312;43.460;11.810;2024-02-14T19:49:00;10.00;86.90
42135;DHT22;28312;43.460;11.810;2024-02-14T19:53:04;9.70;86.50
42135;DHT22;28312;43.460;11.810;2024-02-14T19:57:08;9.50;86.10
42135;DHT22;28312;43.460;11.810;2024-02-14T20:01:11;9.10;85.80
42135;DHT22;28312;43.460;11.810;2024-02-14T20:05:15;8.70;86.00
42135;DHT22;28312;43.460;11.810;2024-02-14T20:09:22;8.50;86.20
42135;DHT22;28312;43.460;11.810;2024-02-14T20:13:26;8.20;85.80
42135;DHT22;28312;43.460;11.810;2024-02-14T20:17:30;7.90;86.00
42135;DHT22;28312;43.460;11.810;2024-02-14T20:21:34;7.70;85.80
42135;DHT22;28312;43.460;11.810;2024-02-14T20:25:38;7.50;85.80
42135;DHT22;28312;43.460;11.810;2024-02-14T20:29:42;7.20;86.00
42135;DHT22;28312;43.460;11.810;2024-02-14T20:33:46;6.80;86.30
42135;DHT22;28312;43.460;11.810;2024-02-14T20:37:50;6.70;86.80
42135;DHT22;28312;43.460;11.810;2024-02-14T20:41:53;6.60;87.00
42135;DHT22;28312;43.460;11.810;2024-02-14T20:45:58;6.30;87.10
42135;DHT22;28312;43.460;11.810;2024-02-14T20:50:02;6.20;87.30
42135;DHT22;28312;43.460;11.810;2024-02-14T20:54:06;6.10;87.60
42135;DHT22;28312;43.460;11.810;2024-02-14T20:58:10;5.90;87.70
42135;DHT22;28312;43.460;11.810;2024-02-14T21:02:13;5.90;88.20
42135;DHT22;28312;43.460;11.810;2024-02-14T21:06:17;5.80;88.10
42135;DHT22;28312;43.460;11.810;2024-02-14T21:10:22;5.80;87.90
42135;DHT22;28312;43.460;11.810;2024-02-14T21:14:26;5.80;87.80
42135;DHT22;28312;43.460;11.810;2024-02-14T21:18:29;5.70;87.50
42135;DHT22;28312;43.460;11.810;2024-02-14T21:22:33;5.50;87.10
42135;DHT22;28312;43.460;11.810;2024-02-14T21:26:37;5.20;87.40
42135;DHT22;28312;43.460;11.810;2024-02-14T21:30:42;5.10;87.80
42135;DHT22;28312;43.460;11.810;2024-02-14T21:34:45;5.00;87.60
42135;DHT22;28312;43.460;11.810;2024-02-14T21:38:50;4.80;88.00
42135;DHT22;28312;43.460;11.810;2024-02-14T21:42:53;4.80;88.30
42135;DHT22;28312;43.460;11.810;2024-02-14T21:46:57;4.70;88.20
42135;DHT22;28312;43.460;11.810;2024-02-14T21:51:01;4.50;87.90
42135;DHT22;28312;43.460;11.810;2024-02-14T21:55:07;4.30;88.10
42135;DHT22;28312;43.460;11.810;2024-02-14T21:59:11;4.20;88.30
42135;DHT22;28312;43.460;11.810;2024-02-14T22:03:14;4.20;88.50
42135;DHT22;28312;43.460;11.810;2024-02-14T22:07:18;4.20;88.90
42135;DHT22;28312;43.460;11.810;2024-02-14T22:11:24;4.20;88.80
42135;DHT22;28312;43.460;11.810;2024-02-14T22:15:29;4.10;88.80
42135;DHT22;28312;43.460;11.810;2024-02-14T22:19:33;4.10;88.60
42135;DHT22;28312;43.460;11.810;2024-02-14T22:23:42;4.00;88.50
42135;DHT22;28312;43.460;11.810;2024-02-14T22:27:45;3.80;88.40
42135;DHT22;28312;43.460;11.810;2024-02-14T22:31:49;3.70;88.40
42135;DHT22;28312;43.460;11.810;2024-02-14T22:35:54;3.60;88.70
42135;DHT22;28312;43.460;11.810;2024-02-14T22:39:58;3.60;88.80
42135;DHT22;28312;43.460;11.810;2024-02-14T22:44:02;3.60;89.00
42135;DHT22;28312;43.460;11.810;2024-02-14T22:48:08;3.50;89.20
42135;DHT22;28312;43.460;11.810;2024-02-14T22:52:12;3.50;89.40
42135;DHT22;28312;43.460;11.810;2024-02-14T22:56:16;3.40;89.20
42135;DHT22;28312;43.460;11.810;2024-02-14T23:00:19;3.40;89.10
42135;DHT22;28312;43.460;11.810;2024-02-14T23:04:26;3.30;89.10
42135;DHT22;28312;43.460;11.810;2024-02-14T23:08:32;3.30;89.10
42135;DHT22;28312;43.460;11.810;2024-02-14T23:12:36;3.20;89.10
42135;DHT22;28312;43.460;11.810;2024-02-14T23:16:39;3.20;89.30
42135;DHT22;28312;43.460;11.810;2024-02-14T23:20:44;3.20;89.50
42135;DHT22;28312;43.460;11.810;2024-02-14T23:24:47;3.20;89.40
42135;DHT22;28312;43.460;11.810;2024-02-14T23:28:51;3.10;89.30
42135;DHT22;28312;43.460;11.810;2024-02-14T23:32:54;3.10;89.30
42135;DHT22;28312;43.460;11.810;2024-02-14T23:37:00;3.10;89.10
42135;DHT22;28312;43.460;11.810;2024-02-14T23:41:04;2.90;89.00
42135;DHT22;28312;43.460;11.810;2024-02-14T23:45:08;2.90;88.90
42135;DHT22;28312;43.460;11.810;2024-02-14T23:49:14;2.80;88.90
42135;DHT22;28312;43.460;11.810;2024-02-14T23:53:18;2.80;89.10
42135;DHT22;28312;43.460;11.810;2024-02-14T23:57:22;2.70;89.20
